Stroudsburg, Pennsylvania
Current Conditions -  °F | °C
As of 5:53 AM on Friday 21 Nov 2014 (Local Time) from KMPO Reporting Station
Scattered Clouds Scattered Clouds  
Wind Chill:   Ceiling: Unl
Heat Index: 16°   Visibility: 10mi
Dew Point:   Wind: 12mph
Humidity: 71%   Direction: 290°WNW
Pressure: 30.04"   Gusts: NA
Location:  40.99°N, 75.19°W
Report Text: KMPO 211053Z AUTO 29010KT 10SM SCT029 M09/M13 A3004 RMK AO2 SLP203 T10891133
Loading
Personal Weather Stations






























Interactive Weather Map New forecast layout! Learn more

10-Day Weather Forecast

Advertisements
Track Severe Weather on mobile